Time;durP1;ratioP1;P1;durP2;ratioP2;P2;SDS_P1;SDS_P2;PMS_P1;PMS_P2;Temp;Humidity;BMP_temperature;BMP_pressure;BME280_temperature;BME280_humidity;BME280_pressure;Samples;Min_cycle;Max_cycle;Signal;HPM_P1;HPM_P2
2021/05/05 00:00:13;;;;;;;1.67;0.40;;;;;;;22.44;48.21;97246.19;5046863;28;20306;-61
2021/05/05 00:02:40;;;;;;;1.50;0.60;;;;;;;22.43;47.83;97247.22;5042322;28;20310;-62
2021/05/05 00:05:06;;;;;;;1.88;0.70;;;;;;;22.40;47.92;97244.94;5038234;28;20210;-65
2021/05/05 00:07:32;;;;;;;1.30;0.70;;;;;;;22.40;48.09;97236.94;5034084;28;20227;-64
2021/05/05 00:09:58;;;;;;;2.38;0.70;;;;;;;22.36;47.98;97222.34;5031806;28;20219;-64
2021/05/05 00:12:24;;;;;;;1.90;0.80;;;;;;;22.37;48.33;97221.34;5038682;28;20431;-60
2021/05/05 00:14:50;;;;;;;2.33;0.60;;;;;;;22.34;48.64;97213.72;5033967;28;20215;-63
2021/05/05 00:17:17;;;;;;;1.77;0.60;;;;;;;22.33;47.91;97212.06;5036574;28;20692;-62
2021/05/05 00:19:43;;;;;;;0.90;0.50;;;;;;;22.34;48.15;97208.41;5044188;28;20775;-64
2021/05/05 00:22:09;;;;;;;1.80;0.63;;;;;;;22.28;47.81;97217.97;5033265;28;20208;-66
2021/05/05 00:24:36;;;;;;;1.45;0.45;;;;;;;22.29;48.87;97234.78;5036427;28;20957;-61
2021/05/05 00:27:02;;;;;;;1.83;0.50;;;;;;;22.30;48.61;97239.06;5033524;28;22085;-63
2021/05/05 00:29:28;;;;;;;4.85;0.80;;;;;;;22.30;49.09;97233.75;5031252;28;20334;-63
2021/05/05 00:31:54;;;;;;;1.85;0.50;;;;;;;22.32;48.24;97231.72;5038688;28;20356;-62
2021/05/05 00:34:21;;;;;;;3.25;0.70;;;;;;;22.29;48.50;97237.44;5037141;28;20207;-64
2021/05/05 00:36:47;;;;;;;4.38;0.80;;;;;;;22.26;47.83;97238.59;5037536;28;20296;-64
2021/05/05 00:39:13;;;;;;;1.60;0.60;;;;;;;22.26;48.27;97235.13;5033278;28;20776;-60
2021/05/05 00:41:39;;;;;;;3.08;0.68;;;;;;;22.23;48.29;97232.81;5040607;28;20346;-61
2021/05/05 00:44:06;;;;;;;4.00;0.60;;;;;;;22.23;49.22;97225.66;5034708;28;20211;-64
2021/05/05 00:46:32;;;;;;;1.17;0.50;;;;;;;22.24;48.15;97223.84;5034650;28;20226;-65
2021/05/05 00:48:58;;;;;;;0.70;0.50;;;;;;;22.21;48.74;97210.91;5032702;28;20214;-66
2021/05/05 00:51:25;;;;;;;1.33;0.60;;;;;;;22.18;48.38;97206.75;5037033;28;20311;-66
2021/05/05 00:53:51;;;;;;;2.20;0.57;;;;;;;22.16;49.13;97206.94;5042284;28;20212;-64
2021/05/05 00:56:17;;;;;;;1.08;0.60;;;;;;;22.17;48.48;97205.94;5039179;28;20269;-63
2021/05/05 00:58:43;;;;;;;0.95;0.60;;;;;;;22.16;48.10;97206.13;5029261;28;20204;-63
2021/05/05 01:01:11;;;;;;;0.50;0.38;;;;;;;22.17;49.30;97199.81;5040593;28;20214;-61
2021/05/05 01:03:37;;;;;;;2.75;0.60;;;;;;;22.15;48.06;97180.53;5045582;28;20294;-63
2021/05/05 01:06:04;;;;;;;1.05;0.40;;;;;;;22.12;48.49;97176.41;5032160;28;20870;-67
2021/05/05 01:08:32;;;;;;;1.40;0.50;;;;;;;22.13;48.28;97183.41;5039745;28;20240;-61
2021/05/05 01:10:59;;;;;;;0.98;0.50;;;;;;;22.13;49.00;97170.09;5039006;28;20214;-62
2021/05/05 01:13:25;;;;;;;1.48;0.52;;;;;;;22.12;48.23;97155.13;5040496;28;20207;-64
2021/05/05 01:15:51;;;;;;;1.42;0.60;;;;;;;22.11;48.96;97144.66;5033305;28;20216;-57
2021/05/05 01:18:17;;;;;;;0.90;0.35;;;;;;;22.10;48.58;97149.16;5036438;28;20214;-64
2021/05/05 01:20:43;;;;;;;1.17;0.40;;;;;;;22.08;48.87;97153.88;5034232;28;20208;-66
2021/05/05 01:23:10;;;;;;;1.15;0.40;;;;;;;22.10;48.89;97159.81;5040469;28;20569;-65
2021/05/05 01:25:37;;;;;;;1.35;0.43;;;;;;;22.09;48.78;97166.13;5032817;28;20207;-62
2021/05/05 01:28:03;;;;;;;0.95;0.40;;;;;;;22.08;49.11;97167.16;5041883;28;20234;-62
2021/05/05 01:30:30;;;;;;;1.00;0.40;;;;;;;22.08;48.83;97172.50;5028623;28;20204;-65
2021/05/05 01:32:56;;;;;;;0.52;0.40;;;;;;;22.08;48.50;97169.00;5033861;28;20204;-63
2021/05/05 01:35:24;;;;;;;0.75;0.60;;;;;;;22.05;48.55;97175.53;5032881;28;20210;-62
2021/05/05 01:37:51;;;;;;;1.15;0.52;;;;;;;22.06;48.05;97169.16;5029087;28;20326;-63
2021/05/05 01:40:23;;;;;;;1.55;0.45;;;;;;;22.05;48.19;97158.72;5031012;28;20703;-63
2021/05/05 01:42:49;;;;;;;3.25;0.50;;;;;;;22.05;48.80;97159.56;5040296;28;20645;-64
2021/05/05 01:45:15;;;;;;;0.75;0.43;;;;;;;22.08;48.03;97169.84;5039089;28;20235;-63
2021/05/05 01:47:42;;;;;;;1.13;0.30;;;;;;;22.06;48.68;97166.50;5030921;28;20215;-62
2021/05/05 01:50:10;;;;;;;0.88;0.50;;;;;;;22.05;47.88;97170.19;5031037;28;20306;-64
2021/05/05 01:52:36;;;;;;;1.83;0.73;;;;;;;22.04;48.24;97165.88;5032699;28;20208;-59
2021/05/05 01:55:03;;;;;;;0.85;0.40;;;;;;;22.03;48.22;97168.72;5035313;28;20692;-60
2021/05/05 01:57:37;;;;;;;1.63;0.47;;;;;;;22.04;48.40;97157.91;5037755;28;20325;-62
2021/05/05 02:00:07;;;;;;;3.85;0.70;;;;;;;22.04;47.81;97149.91;5026977;28;20207;-64
2021/05/05 02:02:33;;;;;;;0.90;0.40;;;;;;;22.03;48.38;97158.09;5035976;28;20251;-62
2021/05/05 02:04:59;;;;;;;0.90;0.50;;;;;;;22.02;48.35;97167.91;5040196;28;20540;-64
2021/05/05 02:07:26;;;;;;;1.25;0.45;;;;;;;22.04;48.48;97170.38;5034391;28;20223;-62
2021/05/05 02:09:53;;;;;;;0.40;0.40;;;;;;;22.02;49.05;97167.91;5031353;28;20691;-60
2021/05/05 02:12:19;;;;;;;2.35;0.47;;;;;;;22.02;48.67;97157.28;5027430;28;20208;-61
2021/05/05 02:14:47;;;;;;;1.40;0.50;;;;;;;22.04;48.62;97157.91;5030463;28;20349;-66
2021/05/05 02:17:13;;;;;;;1.08;0.50;;;;;;;21.99;48.66;97149.66;5028904;28;20240;-62
2021/05/05 02:19:40;;;;;;;2.10;0.40;;;;;;;22.02;47.81;97151.94;5034404;28;20200;-63
2021/05/05 02:22:06;;;;;;;3.30;0.50;;;;;;;21.99;48.31;97147.81;5026297;28;20241;-67
2021/05/05 02:24:32;;;;;;;2.25;0.50;;;;;;;21.98;48.13;97153.31;5038300;28;20218;-64
2021/05/05 02:26:58;;;;;;;1.77;0.63;;;;;;;21.99;48.31;97147.81;5034132;28;20224;-66
2021/05/05 02:29:24;;;;;;;2.17;0.40;;;;;;;21.98;48.36;97150.66;5032038;28;20290;-64
2021/05/05 02:31:52;;;;;;;1.15;0.50;;;;;;;21.99;48.22;97147.00;5038405;28;20222;-67
2021/05/05 02:34:20;;;;;;;5.78;0.65;;;;;;;21.99;48.29;97147.81;5039190;28;20697;-64
2021/05/05 02:36:46;;;;;;;0.77;0.38;;;;;;;22.00;48.96;97153.97;5034245;28;20223;-61
2021/05/05 02:39:12;;;;;;;0.73;0.40;;;;;;;21.97;48.75;97154.34;5041489;28;20230;-64
2021/05/05 02:41:39;;;;;;;0.30;0.30;;;;;;;21.97;48.50;97165.00;5039272;28;20802;-64
2021/05/05 02:44:06;;;;;;;0.82;0.30;;;;;;;21.96;48.18;97173.97;5042412;28;20284;-62
2021/05/05 02:46:32;;;;;;;1.20;0.30;;;;;;;21.96;48.18;97174.78;5042282;28;20223;-62
2021/05/05 02:48:59;;;;;;;0.77;0.43;;;;;;;21.95;47.95;97178.50;5040549;28;20210;-65
2021/05/05 02:51:26;;;;;;;2.85;0.52;;;;;;;21.97;48.83;97181.78;5039516;28;20307;-62
2021/05/05 02:53:52;;;;;;;0.82;0.40;;;;;;;21.99;48.02;97184.25;5038843;28;20224;-63
2021/05/05 02:56:18;;;;;;;0.70;0.52;;;;;;;21.97;48.41;97181.78;5044950;28;20325;-61
2021/05/05 02:58:44;;;;;;;3.25;0.40;;;;;;;21.97;48.60;97183.63;5042114;28;20657;-63
2021/05/05 03:01:10;;;;;;;0.90;0.50;;;;;;;21.96;48.04;97179.31;5040808;28;20218;-62
2021/05/05 03:03:36;;;;;;;5.47;0.30;;;;;;;21.96;48.01;97182.78;5046875;28;20850;-62
2021/05/05 03:06:04;;;;;;;0.75;0.50;;;;;;;21.95;48.43;97177.69;5044350;28;20567;-62
2021/05/05 03:08:31;;;;;;;2.15;0.52;;;;;;;21.95;48.84;97177.69;5032979;28;20208;-65
2021/05/05 03:10:57;;;;;;;1.27;0.43;;;;;;;21.95;48.06;97177.69;5037029;28;20207;-63
2021/05/05 03:13:23;;;;;;;3.53;0.47;;;;;;;21.96;48.90;97161.50;5044283;28;20704;-60
2021/05/05 03:15:49;;;;;;;1.42;0.50;;;;;;;21.95;47.97;97167.84;5040972;28;20223;-60
2021/05/05 03:18:16;;;;;;;2.13;0.47;;;;;;;21.94;48.09;97174.16;5042085;28;20835;-58
2021/05/05 03:20:42;;;;;;;1.48;0.60;;;;;;;21.97;48.39;97165.00;5043721;28;20222;-62
2021/05/05 03:23:09;;;;;;;3.03;0.40;;;;;;;21.94;48.21;97166.19;5038187;28;20214;-62
2021/05/05 03:25:35;;;;;;;2.83;0.43;;;;;;;21.93;48.21;97166.38;5037432;28;20219;-64
2021/05/05 03:28:01;;;;;;;1.48;0.50;;;;;;;21.94;48.39;97160.06;5029370;28;20269;-64
2021/05/05 03:30:27;;;;;;;2.25;0.60;;;;;;;21.93;48.73;97166.38;5034883;28;20247;-64
2021/05/05 03:32:53;;;;;;;0.68;0.32;;;;;;;21.92;48.32;97170.88;5044336;28;20298;-64
2021/05/05 03:35:19;;;;;;;1.35;0.50;;;;;;;21.92;48.43;97172.72;5044562;28;20660;-63
2021/05/05 03:37:45;;;;;;;0.75;0.40;;;;;;;21.96;47.30;97181.97;5032371;28;20227;-62
2021/05/05 03:40:13;;;;;;;1.52;0.30;;;;;;;21.97;47.89;97187.09;5035829;28;20295;-65
2021/05/05 03:42:39;;;;;;;1.88;0.35;;;;;;;22.02;47.62;97191.06;5036965;28;20225;-64
2021/05/05 03:45:08;;;;;;;1.20;0.38;;;;;;;22.06;47.83;97190.47;5030906;28;20898;-66
2021/05/05 03:47:34;;;;;;;2.20;0.60;;;;;;;22.11;47.72;97192.56;5043580;28;20228;-67
2021/05/05 03:50:00;;;;;;;0.90;0.40;;;;;;;22.14;48.14;97193.00;5037707;28;20282;-63
2021/05/05 03:52:27;;;;;;;1.23;0.50;;;;;;;22.13;48.42;97178.06;5034777;28;20975;-64
2021/05/05 03:54:53;;;;;;;0.35;0.35;;;;;;;22.15;48.06;97186.69;5039373;28;20328;-64
2021/05/05 03:57:20;;;;;;;0.90;0.30;;;;;;;22.16;47.30;97180.31;5041421;28;20291;-64
2021/05/05 03:59:46;;;;;;;0.38;0.35;;;;;;;22.20;47.81;97185.28;5038696;28;20633;-64
2021/05/05 04:02:12;;;;;;;0.50;0.38;;;;;;;22.21;47.33;97192.25;5041003;28;20203;-62
2021/05/05 04:04:38;;;;;;;1.58;0.40;;;;;;;22.23;48.15;97190.22;5043620;28;20251;-67
2021/05/05 04:07:04;;;;;;;1.20;0.30;;;;;;;22.24;47.83;97184.72;5042025;28;20237;-66
2021/05/05 04:09:30;;;;;;;0.98;0.40;;;;;;;22.26;47.58;97181.88;5034998;28;20204;-67
2021/05/05 04:11:57;;;;;;;0.65;0.40;;;;;;;22.27;48.02;97202.16;5032762;28;20204;-66
2021/05/05 04:14:24;;;;;;;1.13;0.40;;;;;;;22.27;47.76;97194.19;5035439;28;20342;-62
2021/05/05 04:16:50;;;;;;;0.55;0.35;;;;;;;22.27;47.49;97202.16;5038887;28;20692;-60
2021/05/05 04:19:16;;;;;;;0.60;0.40;;;;;;;22.27;47.29;97208.31;5037155;28;20227;-67
2021/05/05 04:21:42;;;;;;;3.40;0.40;;;;;;;22.29;47.47;97213.47;5041222;28;20202;-63
2021/05/05 04:24:09;;;;;;;2.60;0.47;;;;;;;22.29;47.71;97208.16;5038037;28;20230;-64
2021/05/05 04:26:36;;;;;;;1.15;0.50;;;;;;;22.28;47.56;97207.34;5032909;28;20739;-62
2021/05/05 04:29:02;;;;;;;3.25;0.40;;;;;;;22.31;47.99;97214.09;5032354;28;20306;-65
2021/05/05 04:31:30;;;;;;;1.75;0.50;;;;;;;22.31;47.34;97214.09;5037356;28;20211;-66
2021/05/05 04:33:56;;;;;;;1.00;0.45;;;;;;;22.30;47.02;97217.75;5036287;28;20627;-62
2021/05/05 04:36:22;;;;;;;1.13;0.50;;;;;;;22.30;47.81;97213.28;5042781;28;20227;-65
2021/05/05 04:38:49;;;;;;;0.80;0.30;;;;;;;22.30;46.89;97231.91;5045456;28;20256;-64
2021/05/05 04:41:15;;;;;;;0.95;0.40;;;;;;;22.32;48.21;97229.06;5041497;28;20203;-64
2021/05/05 04:43:41;;;;;;;0.50;0.40;;;;;;;22.31;48.07;97224.75;5040322;28;20303;-63
2021/05/05 04:46:07;;;;;;;0.98;0.40;;;;;;;22.33;47.84;97236.88;5041695;28;20376;-63
2021/05/05 04:48:35;;;;;;;1.50;0.50;;;;;;;22.32;47.82;97247.72;5045634;28;20195;-61
2021/05/05 04:51:01;;;;;;;0.55;0.30;;;;;;;22.35;46.79;97255.31;5040671;28;20298;-59
2021/05/05 04:53:27;;;;;;;2.90;0.60;;;;;;;22.33;47.75;97249.34;5035396;28;20696;-64
2021/05/05 04:55:54;;;;;;;11.60;0.63;;;;;;;22.33;47.77;97246.69;5033369;28;20276;-63
2021/05/05 04:58:20;;;;;;;5.82;0.68;;;;;;;22.43;46.25;97249.03;5043720;28;20266;-65
2021/05/05 05:00:46;;;;;;;4.05;0.57;;;;;;;22.47;46.74;97234.34;5043331;28;20314;-65
2021/05/05 05:03:12;;;;;;;2.80;0.60;;;;;;;22.52;46.80;97242.59;5048344;28;20204;-60
2021/05/05 05:05:39;;;;;;;1.38;0.60;;;;;;;22.54;46.96;97262.69;5047235;28;20720;-64
2021/05/05 05:08:06;;;;;;;3.47;0.70;;;;;;;22.59;46.59;97258.63;5051187;28;20578;-68
2021/05/05 05:10:32;;;;;;;6.00;0.88;;;;;;;22.58;46.82;97264.97;5047859;28;20304;-66
2021/05/05 05:13:00;;;;;;;4.25;0.80;;;;;;;22.63;47.53;97262.56;5054537;28;20250;-62
2021/05/05 05:15:26;;;;;;;4.07;0.63;;;;;;;22.63;47.46;97265.22;5049177;28;20705;-69
2021/05/05 05:17:52;;;;;;;4.85;0.90;;;;;;;22.63;48.33;97275.88;5049996;28;20227;-66
2021/05/05 05:20:18;;;;;;;15.60;1.52;;;;;;;22.61;48.63;97283.22;5048209;28;20199;-64
2021/05/05 05:22:45;;;;;;;9.98;0.80;;;;;;;22.58;48.89;97279.09;5051783;28;20250;-65
2021/05/05 05:25:12;;;;;;;8.38;1.35;;;;;;;22.59;48.67;97282.59;5047418;28;20567;-65
2021/05/05 05:27:38;;;;;;;3.63;0.88;;;;;;;22.40;48.44;97271.56;5042091;28;20711;-67
2021/05/05 05:30:06;;;;;;;10.23;0.95;;;;;;;22.48;48.54;97275.91;5047041;28;21074;-65
2021/05/05 05:32:32;;;;;;;10.05;1.05;;;;;;;22.51;48.76;97273.69;5043859;28;20205;-63
2021/05/05 05:34:58;;;;;;;8.57;1.50;;;;;;;22.53;48.57;97279.69;5049294;28;20276;-71
2021/05/05 05:37:24;;;;;;;3.80;0.90;;;;;;;22.51;48.33;97289.69;5044063;28;20256;-71
2021/05/05 05:39:51;;;;;;;6.00;0.90;;;;;;;22.50;48.40;97293.38;5047685;28;20314;-66
2021/05/05 05:42:17;;;;;;;4.35;1.15;;;;;;;22.48;47.82;97290.09;5051306;28;20213;-69
2021/05/05 05:44:43;;;;;;;4.40;0.80;;;;;;;22.45;48.19;97301.09;5051333;28;20203;-69
2021/05/05 05:47:10;;;;;;;2.80;0.57;;;;;;;22.44;48.11;97304.78;5044511;28;20700;-69
2021/05/05 05:49:36;;;;;;;16.42;1.20;;;;;;;22.43;49.13;97303.16;5048560;28;20336;-64
2021/05/05 05:52:02;;;;;;;3.95;0.88;;;;;;;22.43;48.80;97307.63;5048146;28;20220;-64
2021/05/05 05:54:29;;;;;;;3.00;0.80;;;;;;;22.42;48.12;97304.16;5044289;28;20297;-64
2021/05/05 05:56:55;;;;;;;10.48;0.77;;;;;;;22.41;49.19;97305.16;5043488;28;20716;-59
2021/05/05 05:59:22;;;;;;;8.75;0.90;;;;;;;22.48;49.10;97300.75;5052541;28;20221;-66
2021/05/05 06:01:48;;;;;;;4.60;1.00;;;;;;;22.59;48.58;97306.56;5049808;28;20947;-61
2021/05/05 06:04:16;;;;;;;12.35;0.85;;;;;;;22.69;48.39;97302.56;5041458;28;20211;-70
2021/05/05 06:06:42;;;;;;;11.45;1.30;;;;;;;22.76;49.29;97307.97;5043722;28;20810;-66
2021/05/05 06:09:09;;;;;;;7.78;0.70;;;;;;;22.20;43.45;97318.38;5043788;28;20214;-66
2021/05/05 06:11:35;;;;;;;7.80;0.85;;;;;;;21.69;42.39;97327.94;5042102;28;20204;-67
2021/05/05 06:14:02;;;;;;;6.53;0.80;;;;;;;22.00;44.23;97324.28;5043731;28;20298;-66
2021/05/05 06:16:29;;;;;;;10.55;0.95;;;;;;;22.37;46.48;97319.84;5042946;28;20234;-66
2021/05/05 06:18:55;;;;;;;4.68;0.65;;;;;;;22.57;45.89;97319.25;5041478;28;20216;-64
2021/05/05 06:21:21;;;;;;;13.27;1.52;;;;;;;22.63;45.57;97334.47;5040002;28;20663;-59
2021/05/05 06:23:47;;;;;;;5.85;0.98;;;;;;;22.68;46.03;97332.91;5043175;28;20261;-62
2021/05/05 06:26:13;;;;;;;5.70;1.10;;;;;;;22.72;46.28;97331.50;5041536;28;20196;-62
2021/05/05 06:28:39;;;;;;;4.78;0.88;;;;;;;22.77;46.41;97338.13;5044121;28;20235;-63
2021/05/05 06:31:06;;;;;;;4.38;0.50;;;;;;;22.81;46.39;97347.38;5039058;28;20216;-62
2021/05/05 06:33:32;;;;;;;4.10;0.60;;;;;;;22.83;46.33;97346.19;5044971;28;20209;-60
2021/05/05 06:35:58;;;;;;;2.33;0.70;;;;;;;22.84;46.82;97349.66;5042620;28;20610;-62
2021/05/05 06:38:25;;;;;;;7.85;1.10;;;;;;;22.84;46.20;97358.47;5040968;28;20261;-59
2021/05/05 06:40:51;;;;;;;7.63;0.70;;;;;;;22.84;46.32;97358.47;5050317;28;20294;-59
2021/05/05 06:43:17;;;;;;;9.30;0.73;;;;;;;22.91;46.33;97370.06;5049925;28;20214;-61
2021/05/05 06:45:43;;;;;;;2.15;0.50;;;;;;;22.94;45.88;97370.69;5044544;28;20636;-59
2021/05/05 06:48:10;;;;;;;3.67;0.77;;;;;;;23.00;46.18;97376.06;5045496;28;20229;-63
2021/05/05 06:50:37;;;;;;;6.38;0.82;;;;;;;23.05;46.87;97378.19;5049693;28;20258;-66
2021/05/05 06:53:03;;;;;;;2.72;0.60;;;;;;;23.07;45.92;97376.16;5047508;28;20198;-62
2021/05/05 06:55:30;;;;;;;3.65;0.90;;;;;;;23.08;46.45;97377.81;5048649;28;20624;-64
2021/05/05 06:57:56;;;;;;;4.00;1.00;;;;;;;23.08;46.34;97383.13;5045987;28;20350;-63
2021/05/05 07:00:22;;;;;;;3.38;0.85;;;;;;;23.11;46.78;97385.44;5047778;28;20779;-65
2021/05/05 07:02:49;;;;;;;2.85;0.63;;;;;;;23.13;45.89;97388.72;5052221;28;20215;-63
2021/05/05 07:05:15;;;;;;;5.88;0.68;;;;;;;23.16;45.40;97395.53;5048438;28;20282;-64
2021/05/05 07:07:42;;;;;;;4.75;0.60;;;;;;;23.18;46.00;97391.66;5041486;28;20219;-63
2021/05/05 07:10:11;;;;;;;2.72;0.80;;;;;;;23.14;46.29;97382.38;5044614;28;20294;-60
2021/05/05 07:12:37;;;;;;;3.28;0.65;;;;;;;23.13;45.39;97383.38;5046697;28;20318;-63
2021/05/05 07:15:04;;;;;;;5.25;0.88;;;;;;;23.12;46.07;97383.59;5048694;28;20238;-62
2021/05/05 07:17:30;;;;;;;5.18;0.77;;;;;;;23.16;45.84;97382.19;5044813;28;20309;-59
2021/05/05 07:19:57;;;;;;;2.42;0.70;;;;;;;23.17;46.25;97391.84;5048280;28;20213;-62
2021/05/05 07:22:23;;;;;;;7.65;1.42;;;;;;;23.21;46.72;97390.44;5040603;28;20295;-59
2021/05/05 07:24:50;;;;;;;4.70;0.90;;;;;;;23.17;46.35;97394.53;5047932;28;20199;-66
2021/05/05 07:27:16;;;;;;;2.97;0.68;;;;;;;23.15;46.38;97408.03;5050139;28;20333;-65
2021/05/05 07:29:43;;;;;;;1.90;0.68;;;;;;;23.16;45.65;97411.53;5048273;28;20290;-60
2021/05/05 07:32:09;;;;;;;3.13;0.65;;;;;;;23.17;46.20;97406.00;5048471;28;20210;-61
2021/05/05 07:34:38;;;;;;;2.88;0.70;;;;;;;23.19;46.30;97417.28;5054804;28;20246;-64
2021/05/05 07:37:08;;;;;;;1.80;0.50;;;;;;;23.20;45.66;97410.13;5048737;28;20261;-64
2021/05/05 07:45:13;;;;;;;2.28;0.50;;;;;;;23.19;46.01;97427.16;5040148;28;20290;-65
2021/05/05 07:47:41;;;;;;;6.15;0.73;;;;;;;23.20;46.08;97434.09;5053634;28;20219;-65
2021/05/05 07:50:10;;;;;;;3.25;0.65;;;;;;;23.19;45.64;97445.81;5047212;28;20398;-67
2021/05/05 07:52:36;;;;;;;1.13;0.52;;;;;;;23.19;46.01;97435.97;5047907;28;20291;-60
2021/05/05 07:55:04;;;;;;;5.00;0.60;;;;;;;23.19;45.90;97448.47;5050578;28;20238;-66
2021/05/05 07:57:31;;;;;;;5.93;0.60;;;;;;;23.19;46.60;97453.81;5052288;28;20234;-68
2021/05/05 07:59:57;;;;;;;1.85;0.40;;;;;;;23.16;45.65;97441.66;5054396;28;20343;-70
2021/05/05 08:02:23;;;;;;;2.38;0.70;;;;;;;23.18;45.60;97444.16;5053260;28;20252;-70
2021/05/05 08:04:49;;;;;;;0.75;0.40;;;;;;;23.17;46.24;97437.19;5060145;28;20671;-65
2021/05/05 08:07:18;;;;;;;1.38;0.60;;;;;;;23.16;45.79;97435.53;5049918;28;20305;-64
2021/05/05 08:09:44;;;;;;;2.63;0.60;;;;;;;23.16;45.79;97440.84;5051937;28;20297;-63
2021/05/05 08:12:12;;;;;;;1.67;0.43;;;;;;;23.18;47.08;97441.47;5050747;28;20207;-61
2021/05/05 08:14:39;;;;;;;1.98;0.60;;;;;;;23.14;46.59;97438.38;5050860;28;20243;-61
2021/05/05 08:17:06;;;;;;;4.70;0.70;;;;;;;23.15;46.67;97450.69;5041221;28;20804;-64
2021/05/05 08:19:33;;;;;;;2.72;0.50;;;;;;;23.13;45.96;97449.22;5042145;28;20200;-62
2021/05/05 08:21:59;;;;;;;7.57;0.98;;;;;;;23.10;48.40;97453.09;5044693;28;20917;-60
2021/05/05 08:24:26;;;;;;;9.00;1.02;;;;;;;23.11;46.87;97459.25;5037993;28;20682;-64
2021/05/05 08:26:52;;;;;;;8.80;0.70;;;;;;;23.12;47.08;97459.06;5048650;28;20319;-63
2021/05/05 08:29:20;;;;;;;4.40;0.77;;;;;;;23.11;46.18;97452.06;5052763;28;20700;-61
2021/05/05 08:31:46;;;;;;;3.10;0.60;;;;;;;23.12;46.04;97468.91;5051343;28;20210;-62
2021/05/05 08:34:12;;;;;;;11.05;1.33;;;;;;;23.14;45.43;97486.34;5053336;28;20199;-63
2021/05/05 08:36:38;;;;;;;18.88;1.40;;;;;;;23.17;46.42;97466.50;5046453;28;20229;-60
2021/05/05 08:39:04;;;;;;;6.45;0.80;;;;;;;23.20;45.25;97458.09;5053250;28;20206;-66
2021/05/05 08:41:32;;;;;;;6.13;0.75;;;;;;;23.19;45.32;97451.97;5051365;28;20260;-61
2021/05/05 08:43:58;;;;;;;4.78;0.75;;;;;;;23.17;45.84;97454.00;5050518;28;20211;-63
2021/05/05 08:46:25;;;;;;;4.32;0.75;;;;;;;23.15;45.77;97471.19;5047739;28;20314;-61
2021/05/05 08:48:52;;;;;;;6.53;1.00;;;;;;;23.17;44.71;97450.50;5049337;28;20226;-62
2021/05/05 08:51:18;;;;;;;3.63;0.70;;;;;;;23.17;44.99;97447.84;5051021;28;20231;-65
2021/05/05 08:53:44;;;;;;;3.80;0.82;;;;;;;23.17;45.38;97448.66;5052262;28;20207;-60
2021/05/05 08:56:11;;;;;;;4.85;0.85;;;;;;;23.17;44.79;97448.66;5055127;28;20207;-64
2021/05/05 08:58:37;;;;;;;4.65;0.50;;;;;;;23.19;45.03;97451.97;5050793;28;20617;-59
2021/05/05 09:01:05;;;;;;;5.28;0.77;;;;;;;23.21;44.52;97462.44;5052488;28;20206;-62
2021/05/05 09:03:34;;;;;;;4.55;0.60;;;;;;;23.22;44.78;97459.59;5052725;28;20352;-63
2021/05/05 09:06:01;;;;;;;6.32;0.80;;;;;;;23.21;44.60;97471.25;5048353;28;20223;-63
2021/05/05 09:08:30;;;;;;;2.35;0.50;;;;;;;23.21;44.81;97455.25;5050864;28;20199;-66
2021/05/05 09:11:02;;;;;;;3.67;1.10;;;;;;;23.23;44.93;97466.56;5048883;28;20231;-60
2021/05/05 09:13:50;;;;;;;5.18;0.70;;;;;;;23.24;44.22;97465.53;5052264;28;20253;-63
2021/05/05 09:16:19;;;;;;;4.72;0.60;;;;;;;23.23;45.00;97460.41;5050107;28;20626;-59
2021/05/05 09:18:59;;;;;;;2.95;0.50;;;;;;;23.23;44.77;97461.25;5052070;28;20695;-61
2021/05/05 09:21:33;;;;;;;2.45;0.70;;;;;;;23.25;44.39;97456.53;5044891;28;20994;-59
2021/05/05 09:24:18;;;;;;;4.68;0.70;;;;;;;23.24;43.82;97452.22;5046013;28;20203;-60
2021/05/05 09:26:45;;;;;;;2.53;0.95;;;;;;;23.26;44.04;97473.34;5046492;28;20231;-58
2021/05/05 09:29:11;;;;;;;3.03;0.70;;;;;;;23.24;43.29;97465.53;5052709;28;20203;-57
2021/05/05 09:31:40;;;;;;;6.32;1.15;;;;;;;23.23;43.74;97469.25;5046796;28;20622;-59
2021/05/05 09:34:10;;;;;;;3.90;0.63;;;;;;;23.21;43.98;97463.25;5036992;28;20290;-60
2021/05/05 09:36:36;;;;;;;4.18;0.80;;;;;;;23.19;43.39;97459.94;5037445;28;20553;-61
2021/05/05 09:39:05;;;;;;;1.13;0.57;;;;;;;23.17;43.87;97464.66;5046600;28;20323;-60
2021/05/05 09:41:33;;;;;;;7.53;1.00;;;;;;;23.10;44.22;97447.78;5046298;28;20442;-64
2021/05/05 09:44:00;;;;;;;11.30;1.30;;;;;;;23.14;44.80;97461.56;5049071;28;20624;-63
2021/05/05 09:46:41;;;;;;;6.15;0.88;;;;;;;23.19;44.07;97443.97;5038883;28;20310;-61
2021/05/05 09:49:19;;;;;;;2.88;0.63;;;;;;;23.19;44.96;97446.63;5050905;28;20199;-60
2021/05/05 09:51:47;;;;;;;3.92;0.95;;;;;;;23.21;45.03;97446.44;5045517;28;20299;-62
2021/05/05 09:54:24;;;;;;;6.82;1.05;;;;;;;23.19;44.30;97443.13;5042378;28;20250;-68
2021/05/05 09:56:50;;;;;;;5.82;0.90;;;;;;;23.20;43.65;97458.94;5045645;28;20739;-65
2021/05/05 09:59:16;;;;;;;6.80;0.95;;;;;;;23.19;43.38;97456.47;5047353;28;20577;-60
2021/05/05 10:01:59;;;;;;;5.32;0.93;;;;;;;23.21;44.07;97457.91;5049472;28;20289;-63
2021/05/05 10:04:26;;;;;;;2.17;0.70;;;;;;;23.20;44.50;97453.63;5042528;28;20204;-62
2021/05/05 10:06:57;;;;;;;4.40;0.80;;;;;;;23.20;44.14;97464.28;5048967;28;20228;-62
2021/05/05 10:09:24;;;;;;;6.10;1.05;;;;;;;23.21;44.43;97459.78;5051008;28;20648;-60
2021/05/05 10:11:51;;;;;;;2.88;1.00;;;;;;;23.20;44.36;97458.94;5049334;28;20198;-63
2021/05/05 10:14:19;;;;;;;6.57;1.40;;;;;;;22.95;38.94;97486.91;5048058;28;20347;-61
2021/05/05 10:16:47;;;;;;;5.82;1.45;;;;;;;22.49;34.36;97472.00;5045722;28;20653;-60
2021/05/05 10:19:15;;;;;;;4.88;1.30;;;;;;;22.22;32.81;97481.44;5047876;28;20342;-62
2021/05/05 10:21:46;;;;;;;4.53;1.20;;;;;;;22.09;34.13;97501.50;5043522;28;20917;-61
2021/05/05 10:24:12;;;;;;;3.58;1.23;;;;;;;22.07;32.32;97490.22;5039016;28;20703;-60
2021/05/05 10:26:42;;;;;;;4.13;1.05;;;;;;;21.86;32.31;97503.38;5040771;28;20309;-58
2021/05/05 10:29:09;;;;;;;3.20;1.10;;;;;;;21.84;31.00;97505.38;5042523;28;20203;-59
2021/05/05 10:31:36;;;;;;;4.93;0.90;;;;;;;21.69;30.93;97492.84;5047594;28;20226;-57
2021/05/05 10:34:14;;;;;;;3.67;1.02;;;;;;;21.66;30.39;97500.38;5048002;28;20305;-61
2021/05/05 10:36:47;;;;;;;4.68;0.95;;;;;;;21.62;31.59;97499.91;5047117;28;20279;-61
2021/05/05 10:39:32;;;;;;;5.85;1.50;;;;;;;21.58;32.33;97507.41;5039873;28;20235;-59
2021/05/05 10:42:15;;;;;;;6.13;1.27;;;;;;;22.05;34.68;97507.34;5043706;28;20226;-61
2021/05/05 10:44:44;;;;;;;6.28;1.33;;;;;;;22.23;35.37;97509.69;5041986;28;20233;-65
2021/05/05 10:47:30;;;;;;;9.82;1.52;;;;;;;22.32;34.70;97535.25;5044537;28;20218;-62
2021/05/05 10:50:15;;;;;;;9.85;1.25;;;;;;;22.44;35.23;97586.25;5039484;28;20206;-61
2021/05/05 10:53:05;;;;;;;2.90;1.15;;;;;;;22.63;36.91;97623.03;5043790;28;20207;-62
2021/05/05 10:55:50;;;;;;;5.32;1.08;;;;;;;22.80;38.17;97671.66;5047273;28;20660;-58
2021/05/05 10:58:19;;;;;;;9.65;1.20;;;;;;;22.90;37.69;97682.88;5047197;28;20232;-60
2021/05/05 11:01:05;;;;;;;7.20;1.20;;;;;;;22.96;38.56;97691.16;5052787;28;20348;-59
2021/05/05 11:04:01;;;;;;;3.67;1.23;;;;;;;22.97;37.96;97712.28;5039946;28;20314;-62
2021/05/05 11:06:58;;;;;;;6.57;1.20;;;;;;;23.03;38.94;97713.38;5052388;28;21002;-57
2021/05/05 11:09:51;;;;;;;17.25;1.30;;;;;;;23.02;39.12;97725.09;5054936;28;20286;-63
2021/05/05 11:12:45;;;;;;;5.07;1.08;;;;;;;23.03;38.95;97698.25;5054247;28;20285;-64
2021/05/05 11:15:11;;;;;;;3.83;0.98;;;;;;;23.05;40.07;97679.41;5050972;28;20318;-61
2021/05/05 11:17:38;;;;;;;5.38;0.90;;;;;;;23.06;39.63;97681.03;5055482;28;20239;-64
2021/05/05 11:20:05;;;;;;;6.10;1.00;;;;;;;23.04;39.55;97699.88;5054267;28;20629;-66
2021/05/05 11:22:48;;;;;;;3.00;0.93;;;;;;;23.05;40.48;97690.88;5051147;28;20249;-67
2021/05/05 11:25:21;;;;;;;2.90;0.88;;;;;;;23.04;40.18;97691.88;5052845;28;20285;-55
2021/05/05 11:27:51;;;;;;;4.30;1.02;;;;;;;23.06;40.32;97686.38;5050649;28;20234;-63
2021/05/05 11:30:40;;;;;;;2.17;0.90;;;;;;;23.05;40.76;97669.56;5050936;28;20314;-64
2021/05/05 11:33:10;;;;;;;3.42;0.80;;;;;;;23.07;40.86;97672.91;5051905;28;20216;-60
2021/05/05 11:35:38;;;;;;;3.15;0.90;;;;;;;23.08;41.19;97671.03;5052800;28;20226;-62
2021/05/05 11:38:10;;;;;;;3.22;0.90;;;;;;;23.07;40.92;97677.41;5050866;28;20265;-64
2021/05/05 11:40:37;;;;;;;4.40;1.00;;;;;;;23.07;40.75;97677.41;5051256;28;20354;-63
2021/05/05 11:43:17;;;;;;;1.48;0.80;;;;;;;23.10;41.46;97677.06;5053240;28;20374;-58